EDT,Max TemperatureF,Mean TemperatureF,Min TemperatureF,Max Dew PointF,MeanDew PointF,Min DewpointF,Max Humidity, Mean Humidity, Min Humidity, Max Sea Level PressureIn, Mean Sea Level PressureIn, Min Sea Level PressureIn, Max VisibilityMiles, Mean VisibilityMiles, Min VisibilityMiles, Max Wind SpeedMPH, Mean Wind SpeedMPH, Max Gust SpeedMPH,PrecipitationIn, CloudCover, Events, WindDirDegrees
2014-3-1,38,30,21,24,10,-4,64,47,29,30.43,30.31,30.16,10,10,9,15,7,45,0.00,5,,189
2014-3-2,39,36,32,22,18,13,56,46,35,30.13,30.05,29.98,10,10,10,15,8,20,T,8,,298
2014-3-3,32,26,19,18,6,-3,74,55,36,30.33,30.16,30.02,10,8,2,22,12,25,0.01,7,Snow,353
2014-3-4,30,22,13,9,2,-4,55,42,29,30.43,30.34,30.26,10,10,10,16,6,21,0.00,5,,6
2014-3-5,37,32,26,11,8,2,50,38,26,30.45,30.28,30.21,10,10,10,20,8,25,0.00,6,,34
2014-3-6,30,23,16,9,3,-2,53,41,29,30.64,30.56,30.48,10,10,10,20,10,24,0.00,4,,50
2014-3-7,36,31,26,28,20,9,75,59,42,30.48,30.22,29.92,10,10,10,21,12,25,T,8,,50
2014-3-8,56,46,35,29,27,25,75,54,32,29.90,29.85,29.77,10,10,8,21,9,26,0.00,5,,310
2014-3-9,43,39,35,25,16,6,59,41,22,30.02,29.96,29.89,10,10,7,23,12,26,0.00,6,,310
2014-3-10,51,44,37,32,22,10,62,46,30,29.93,29.78,29.62,10,10,6,16,9,21,T,7,Rain-Snow,229
2014-3-11,65,55,45,34,30,26,58,42,25,29.70,29.62,29.56,10,10,10,16,8,22,0.00,6,,244
2014-3-12,54,44,33,47,38,28,93,73,53,29.67,29.27,29.02,10,7,2,32,11,41,0.35,8,Rain,105
2014-3-13,33,24,19,23,6,-1,66,43,17,30.09,29.63,29.19,10,10,10,32,27,44,0.00,5,,310
2014-3-14,44,33,22,27,10,-5,59,41,22,30.22,30.10,29.91,10,10,10,22,11,28,0.00,5,,206
2014-3-15,58,49,40,30,24,18,65,44,23,29.99,29.83,29.75,10,10,10,24,15,39,T,5,Rain,250
2014-3-16,42,36,30,21,9,4,44,35,26,30.20,30.15,30.01,10,10,10,23,15,32,0.00,5,,327
2014-3-17,33,28,23,9,4,-2,40,34,28,30.15,30.09,30.06,10,10,10,18,9,25,0.00,8,,43
2014-3-18,41,34,27,22,12,3,61,42,23,30.30,30.24,30.13,10,10,10,23,11,26,0.00,1,,51
2014-3-19,47,39,31,43,31,23,89,76,62,30.32,30.14,29.85,10,8,2,21,12,32,0.99,7,Rain,65
2014-3-20,53,46,39,39,30,19,92,60,28,29.91,29.78,29.74,10,8,3,32,15,41,T,5,Rain,281
2014-3-21,50,45,39,21,18,15,45,35,24,30.06,29.97,29.90,10,10,10,26,13,40,0.00,3,,302
2014-3-22,63,50,37,35,26,17,65,43,21,30.04,29.89,29.75,10,10,10,31,13,43,0.00,5,,237
2014-3-23,42,35,27,23,16,5,50,39,27,30.12,30.03,29.98,10,10,10,24,15,29,0.00,5,,326
2014-3-24,34,28,22,6,3,0,52,38,24,30.25,30.18,30.10,10,10,10,24,12,31,0.00,2,,324
2014-3-25,38,32,26,18,8,1,51,38,24,30.17,30.05,29.86,10,10,9,18,9,24,T,7,Snow,103
2014-3-26,35,30,25,19,10,3,59,44,28,30.22,29.91,29.74,10,10,9,36,23,46,T,5,Snow,331
2014-3-27,42,33,23,22,10,2,50,35,20,30.42,30.33,30.26,10,10,10,26,12,31,0.00,3,,252
2014-3-28,60,49,38,47,37,18,77,61,44,30.25,30.08,29.98,10,10,9,18,7,29,0.03,8,Rain,184
2014-3-29,55,48,41,47,40,38,93,80,66,30.19,30.03,29.70,10,5,1,28,12,32,1.79,7,Rain,44
2014-3-30,47,43,39,43,40,34,92,84,76,29.67,29.56,29.48,10,4,0,26,14,32,0.37,8,Rain-Thunderstorm,13
2014-3-31,54,45,36,33,30,24,79,60,41,30.08,29.88,29.68,10,9,2,29,17,38,0.12,6,Rain-Snow,355